Погода Мангана 2 недели

Минас-Жерайс, Бразилия

21 июля-03 августа
  • 21июля
    Сегодня
    +16°
    +31°
    Небольшая облачность
    ВремяПогодаТемператураВлажностьДавлениеВетер, м/сВероятность осадков
    00:00Ясно и безоблачно+21°C55 %726 мм2.3 м/с5 %
    03:00Ясно и безоблачно+18°C75 %725 мм2.3 м/с5 %
    06:00Ясно и безоблачно+17°C83 %726 мм2.0 м/с5 %
    09:00Ясно и безоблачно+23°C57 %728 мм1.5 м/с5 %
    12:00Ясно и безоблачно+28°C30 %727 мм3.3 м/с5 %
    15:00Небольшая облачность+30°C30 %725 мм3.7 м/с5 %
    18:00Практически безоблачно+26°C39 %725 мм3.4 м/с5 %
    21:00Ясно и безоблачно+23°C51 %726 мм2.3 м/с5 %
  • 22июля
    Понедельник
    +16°
    +31°
    Ясно и безоблачно
    ВремяПогодаТемператураВлажностьДавлениеВетер, м/сВероятность осадков
    00:00Ясно и безоблачно+21°C60 %726 мм2.5 м/с5 %
    03:00Ясно и безоблачно+19°C72 %726 мм2.2 м/с5 %
    06:00Ясно и безоблачно+17°C84 %727 мм1.4 м/с5 %
    09:00Практически безоблачно+23°C62 %728 мм2.7 м/с5 %
    12:00Ясно и безоблачно+28°C39 %727 мм2.6 м/с5 %
    15:00Ясно и безоблачно+31°C31 %725 мм2.0 м/с5 %
    18:00Ясно и безоблачно+26°C41 %725 мм2.6 м/с5 %
    21:00Ясно и безоблачно+23°C46 %726 мм1.9 м/с5 %
  • 23июля
    Вторник
    +16°
    +31°
    Ясно и безоблачно
    ВремяПогодаТемператураВлажностьДавлениеВетер, м/сВероятность осадков
    00:00Ясно и безоблачно+21°C54 %726 мм3.0 м/с5 %
    03:00Ясно и безоблачно+18°C70 %725 мм1.8 м/с5 %
    06:00Ясно и безоблачно+17°C76 %726 мм1.4 м/с5 %
    09:00Ясно и безоблачно+22°C56 %728 мм2.6 м/с5 %
    12:00Ясно и безоблачно+28°C36 %727 мм2.6 м/с5 %
    15:00Ясно и безоблачно+31°C31 %725 мм2.3 м/с5 %
    18:00Ясно и безоблачно+26°C37 %725 мм2.8 м/с5 %
    21:00Ясно и безоблачно+22°C47 %727 мм2.4 м/с5 %
  • 24июля
    Среда
    +16°
    +31°
    Ясно и безоблачно
    ВремяПогодаТемператураВлажностьДавлениеВетер, м/сВероятность осадков
    00:00Ясно и безоблачно+22°C45 %727 мм3.9 м/с5 %
    03:00Ясно и безоблачно+18°C59 %726 мм2.1 м/с5 %
    06:00Ясно и безоблачно+17°C73 %727 мм2.0 м/с5 %
    09:00Ясно и безоблачно+22°C53 %729 мм2.2 м/с5 %
    12:00Ясно и безоблачно+28°C33 %728 мм2.6 м/с5 %
    15:00Ясно и безоблачно+30°C29 %726 мм2.7 м/с5 %
    18:00Ясно и безоблачно+26°C39 %726 мм1.7 м/с5 %
    21:00Ясно и безоблачно+22°C45 %727 мм2.6 м/с5 %
  • 25июля
    Четверг
    +15°
    +31°
    Практически безоблачно
    ВремяПогодаТемператураВлажностьДавлениеВетер, м/сВероятность осадков
    00:00Ясно и безоблачно+20°C53 %727 мм2.5 м/с5 %
    03:00Ясно и безоблачно+18°C69 %726 мм1.9 м/с5 %
    06:00Ясно и безоблачно+17°C81 %727 мм2.3 м/с5 %
    09:00Ясно и безоблачно+22°C61 %728 мм2.4 м/с5 %
    12:00Практически безоблачно+28°C39 %727 мм2.1 м/с5 %
    15:00Практически безоблачно+31°C33 %725 мм1.4 м/с5 %
    18:00Ясно и безоблачно+26°C45 %725 мм0.7 м/с5 %
    21:00Ясно и безоблачно+22°C55 %725 мм1.4 м/с5 %
Мы используем cookies
Соглашаюсь